createdAt,value
2023-12-04T00:00:32.810Z,86.99
2023-12-04T00:03:02.707Z,86.90
2023-12-04T00:05:32.036Z,87.09
2023-12-04T00:08:01.697Z,87.05
2023-12-04T00:10:28.638Z,86.75
2023-12-04T00:12:55.639Z,86.73
2023-12-04T00:15:23.035Z,86.65
2023-12-04T00:17:50.014Z,86.43
2023-12-04T00:20:17.340Z,86.41
2023-12-04T00:22:44.278Z,86.38
2023-12-04T00:25:13.083Z,86.40
2023-12-04T00:27:40.222Z,86.12
2023-12-04T00:30:08.357Z,86.09
2023-12-04T00:32:35.332Z,86.16
2023-12-04T00:35:03.070Z,85.89
2023-12-04T00:37:30.018Z,85.89
2023-12-04T00:39:58.371Z,85.63
2023-12-04T00:42:25.268Z,85.71
2023-12-04T00:44:52.286Z,85.53
2023-12-04T00:47:19.254Z,85.58
2023-12-04T00:49:48.950Z,85.40
2023-12-04T00:52:15.878Z,85.52
2023-12-04T00:54:42.987Z,85.15
2023-12-04T00:57:10.015Z,85.08
2023-12-04T00:59:39.574Z,85.08
2023-12-04T01:02:08.055Z,84.96
2023-12-04T01:04:35.671Z,85.02
2023-12-04T01:07:02.894Z,84.89
2023-12-04T01:09:29.899Z,84.99
2023-12-04T01:11:56.900Z,85.00
2023-12-04T01:14:23.845Z,84.83
2023-12-04T01:16:50.744Z,84.97
2023-12-04T01:19:17.834Z,85.22
2023-12-04T01:21:44.778Z,85.28
2023-12-04T01:24:14.302Z,85.31
2023-12-04T01:26:41.327Z,85.28
2023-12-04T01:29:08.557Z,84.90
2023-12-04T01:31:35.681Z,85.11
2023-12-04T01:34:02.861Z,84.93
2023-12-04T01:36:29.937Z,85.02
2023-12-04T01:38:56.922Z,84.88
2023-12-04T01:41:23.796Z,84.90
2023-12-04T01:43:50.674Z,84.88
2023-12-04T01:46:18.710Z,84.79
2023-12-04T01:48:49.002Z,84.86
2023-12-04T01:51:18.661Z,84.55
2023-12-04T01:53:46.131Z,84.60
2023-12-04T01:56:13.774Z,84.46
2023-12-04T01:58:43.427Z,84.42
2023-12-04T02:01:10.689Z,84.24
2023-12-04T02:03:38.117Z,84.27
2023-12-04T02:06:06.830Z,84.29
2023-12-04T02:08:33.772Z,84.36
2023-12-04T02:11:04.153Z,84.31
2023-12-04T02:13:31.631Z,84.25
2023-12-04T02:16:04.520Z,84.31
2023-12-04T02:18:31.814Z,84.15
2023-12-04T02:20:58.969Z,84.27
2023-12-04T02:23:25.898Z,84.08
2023-12-04T02:26:00.017Z,84.18
2023-12-04T02:28:30.691Z,84.30
2023-12-04T02:30:58.456Z,84.33
2023-12-04T02:33:26.273Z,84.61
2023-12-04T02:35:53.990Z,84.37
2023-12-04T02:38:24.141Z,84.69
2023-12-04T02:40:53.782Z,84.64
2023-12-04T02:43:20.797Z,84.72
2023-12-04T02:45:50.029Z,84.50
2023-12-04T02:48:17.031Z,84.63
2023-12-04T02:50:44.082Z,84.68
2023-12-04T02:53:11.162Z,84.89
2023-12-04T02:55:38.121Z,84.73
2023-12-04T02:58:05.193Z,84.90
2023-12-04T03:00:32.213Z,84.60
2023-12-04T03:03:00.762Z,84.79
2023-12-04T03:05:28.050Z,84.67
2023-12-04T03:07:55.381Z,84.67
2023-12-04T03:10:22.598Z,84.57
2023-12-04T03:12:49.670Z,84.67
2023-12-04T03:15:18.610Z,84.79
2023-12-04T03:17:45.556Z,84.55
2023-12-04T03:20:13.437Z,84.55
2023-12-04T03:22:40.414Z,84.44
2023-12-04T03:25:10.361Z,84.41
2023-12-04T03:27:37.797Z,84.38
2023-12-04T03:30:05.541Z,84.51
2023-12-04T03:32:32.566Z,84.44
2023-12-04T03:34:59.632Z,84.36
2023-12-04T03:37:26.656Z,84.10
2023-12-04T03:39:53.931Z,84.25
2023-12-04T03:42:20.971Z,84.29
2023-12-04T03:44:48.065Z,84.22
2023-12-04T03:47:15.065Z,84.35
2023-12-04T03:49:42.911Z,84.10
2023-12-04T03:52:10.459Z,84.02
2023-12-04T03:54:37.778Z,83.99
2023-12-04T03:57:05.057Z,83.96
2023-12-04T03:59:34.575Z,83.81
2023-12-04T04:02:01.643Z,83.75
2023-12-04T04:04:30.273Z,83.56
2023-12-04T04:06:59.147Z,83.71
2023-12-04T04:09:26.089Z,83.48
2023-12-04T04:11:55.396Z,83.45
2023-12-04T04:14:22.384Z,83.40
2023-12-04T04:16:49.353Z,83.28
2023-12-04T04:19:16.379Z,83.38
2023-12-04T04:21:43.440Z,83.09
2023-12-04T04:24:13.510Z,82.96
2023-12-04T04:26:40.470Z,82.99
2023-12-04T04:29:07.879Z,83.13
2023-12-04T04:31:36.137Z,82.93
2023-12-04T04:34:03.226Z,83.05
2023-12-04T04:36:30.877Z,83.08
2023-12-04T04:38:59.972Z,82.92
2023-12-04T04:41:27.442Z,82.90
2023-12-04T04:43:54.863Z,83.29
2023-12-04T04:46:22.005Z,82.97
2023-12-04T04:48:49.105Z,82.89
2023-12-04T04:51:16.169Z,83.01
2023-12-04T04:53:43.283Z,83.13
2023-12-04T04:56:12.584Z,83.04
2023-12-04T04:58:46.137Z,82.71
2023-12-04T05:01:24.175Z,82.88
2023-12-04T05:03:52.934Z,83.13
2023-12-04T05:06:20.076Z,83.29
2023-12-04T05:08:47.880Z,83.39
2023-12-04T05:11:17.951Z,83.43
2023-12-04T05:13:46.381Z,83.36
2023-12-04T05:16:13.494Z,83.58
2023-12-04T05:18:41.020Z,83.36
2023-12-04T05:21:12.202Z,83.52
2023-12-04T05:23:39.766Z,83.56
2023-12-04T05:26:07.450Z,83.49
2023-12-04T05:28:35.466Z,83.65
2023-12-04T05:31:04.232Z,83.61
2023-12-04T05:33:31.709Z,83.69
2023-12-04T05:35:58.855Z,83.89
2023-12-04T05:38:25.790Z,83.77
2023-12-04T05:40:53.250Z,83.64
2023-12-04T05:43:20.935Z,83.68
2023-12-04T05:45:49.753Z,83.57
2023-12-04T05:48:18.074Z,83.64
2023-12-04T05:50:44.980Z,83.69
2023-12-04T05:53:12.945Z,83.77
2023-12-04T05:55:39.965Z,83.73
2023-12-04T05:58:06.958Z,83.64
2023-12-04T06:00:34.143Z,83.51
2023-12-04T06:03:01.554Z,83.66
2023-12-04T06:05:28.941Z,83.56
2023-12-04T06:07:55.955Z,83.52
2023-12-04T06:10:23.092Z,83.42
2023-12-04T06:12:50.365Z,83.43
2023-12-04T06:15:20.013Z,83.56
2023-12-04T06:17:47.011Z,83.37
2023-12-04T06:20:14.156Z,83.11
2023-12-04T06:22:41.525Z,83.21
2023-12-04T06:25:09.945Z,83.24
2023-12-04T06:27:37.277Z,83.21
2023-12-04T06:30:07.350Z,83.13
2023-12-04T06:32:34.982Z,83.26
2023-12-04T06:35:02.444Z,83.16
2023-12-04T06:37:30.097Z,83.37
2023-12-04T06:40:00.354Z,83.60
2023-12-04T06:42:27.767Z,83.74
2023-12-04T06:44:55.076Z,83.83
2023-12-04T06:47:24.831Z,83.99
2023-12-04T06:49:53.268Z,83.81
2023-12-04T06:52:20.482Z,83.88
2023-12-04T06:54:47.632Z,84.11
2023-12-04T06:57:16.295Z,84.05
2023-12-04T06:59:46.157Z,84.13
2023-12-04T07:02:16.180Z,84.29
2023-12-04T07:04:43.276Z,84.40
2023-12-04T07:07:10.621Z,84.58
2023-12-04T07:09:37.706Z,84.70
2023-12-04T07:12:08.085Z,84.68
2023-12-04T07:14:35.147Z,84.78
2023-12-04T07:17:03.769Z,84.84
2023-12-04T07:19:30.967Z,84.93
2023-12-04T07:21:57.940Z,84.94
2023-12-04T07:24:25.045Z,85.06
2023-12-04T07:26:51.941Z,84.98
2023-12-04T07:29:21.442Z,84.87
2023-12-04T07:31:48.718Z,84.86
2023-12-04T07:34:15.626Z,85.14
2023-12-04T07:36:42.702Z,85.02
2023-12-04T07:39:13.666Z,85.00
2023-12-04T07:41:41.743Z,85.14
2023-12-04T07:44:09.595Z,85.31
2023-12-04T07:46:37.235Z,85.31
2023-12-04T07:49:07.527Z,85.17
2023-12-04T07:51:35.045Z,85.11
2023-12-04T07:54:04.559Z,85.16
2023-12-04T07:56:31.985Z,85.06
2023-12-04T07:58:58.945Z,85.32
2023-12-04T08:01:28.390Z,85.15
2023-12-04T08:03:58.784Z,85.05
2023-12-04T08:06:25.883Z,85.11
2023-12-04T08:08:54.168Z,84.96
2023-12-04T08:11:21.385Z,84.92
2023-12-04T08:13:48.462Z,84.90
2023-12-04T08:16:19.243Z,84.73
2023-12-04T08:18:46.441Z,84.65
2023-12-04T08:21:14.619Z,84.74
2023-12-04T08:23:42.031Z,84.54
2023-12-04T08:26:12.427Z,84.56
2023-12-04T08:28:42.881Z,84.46
2023-12-04T08:31:10.041Z,84.54
2023-12-04T08:33:37.574Z,84.68
2023-12-04T08:36:05.012Z,85.01
2023-12-04T08:38:32.018Z,84.92
2023-12-04T08:40:59.047Z,85.15
2023-12-04T08:43:28.336Z,84.82
2023-12-04T08:45:56.227Z,84.95
2023-12-04T08:48:26.697Z,85.01
2023-12-04T08:50:55.646Z,84.75
2023-12-04T08:53:25.407Z,84.72
2023-12-04T08:55:54.298Z,84.62
2023-12-04T08:58:22.826Z,84.58
2023-12-04T09:00:53.727Z,84.36
2023-12-04T09:03:26.625Z,84.20
2023-12-04T09:05:59.500Z,84.45
2023-12-04T09:08:37.849Z,84.17
2023-12-04T09:11:18.704Z,84.10
2023-12-04T09:13:50.838Z,84.09
2023-12-04T09:16:20.875Z,84.04
2023-12-04T09:18:48.215Z,84.17
2023-12-04T09:21:15.258Z,84.06
2023-12-04T09:23:42.233Z,84.17
2023-12-04T09:26:09.793Z,84.10
2023-12-04T09:28:38.013Z,84.15
2023-12-04T09:31:05.259Z,84.04
2023-12-04T09:33:32.247Z,84.05
2023-12-04T09:35:59.086Z,84.03
2023-12-04T09:38:26.476Z,83.90
2023-12-04T09:40:54.109Z,83.96
2023-12-04T09:43:21.474Z,83.77
2023-12-04T09:45:48.509Z,83.54
2023-12-04T09:48:15.664Z,83.32
2023-12-04T09:50:42.943Z,83.19
2023-12-04T09:53:12.086Z,83.04
2023-12-04T09:55:39.252Z,83.12
2023-12-04T09:58:07.166Z,83.01
2023-12-04T10:00:34.528Z,83.02
2023-12-04T10:03:05.886Z,82.73
2023-12-04T10:05:32.914Z,82.61
2023-12-04T10:08:02.426Z,82.64
2023-12-04T10:10:29.825Z,82.57
2023-12-04T10:12:59.411Z,82.30
2023-12-04T10:15:26.702Z,82.20
2023-12-04T10:17:55.583Z,82.25
2023-12-04T10:20:25.957Z,82.10
2023-12-04T10:23:00.978Z,81.92
2023-12-04T10:25:31.212Z,81.86
2023-12-04T10:28:12.309Z,81.79
2023-12-04T10:30:39.600Z,81.95
2023-12-04T10:33:07.873Z,82.12
2023-12-04T10:35:37.936Z,81.97
2023-12-04T10:38:06.337Z,81.81
2023-12-04T10:40:35.190Z,81.75
2023-12-04T10:43:19.456Z,81.60
2023-12-04T10:45:47.776Z,81.58
2023-12-04T10:48:16.573Z,81.55
2023-12-04T10:50:45.617Z,81.56
2023-12-04T10:53:14.787Z,81.57
2023-12-04T10:55:42.948Z,81.33
2023-12-04T10:58:12.467Z,81.23
2023-12-04T11:00:45.777Z,80.91
2023-12-04T11:03:24.376Z,80.79
2023-12-04T11:05:57.777Z,80.94
2023-12-04T11:08:24.912Z,80.77
2023-12-04T11:11:00.857Z,80.55
2023-12-04T11:13:27.788Z,80.37
2023-12-04T11:16:04.230Z,80.49
2023-12-04T11:18:33.359Z,80.01
2023-12-04T11:21:07.775Z,80.15
2023-12-04T11:23:35.798Z,79.77
2023-12-04T11:26:05.148Z,80.12
2023-12-04T11:28:33.376Z,79.81
2023-12-04T11:31:02.541Z,79.68
2023-12-04T11:33:29.472Z,79.51
2023-12-04T11:36:16.512Z,79.49
2023-12-04T11:38:48.604Z,79.10
2023-12-04T11:41:26.260Z,79.00
2023-12-04T11:43:57.368Z,79.16
2023-12-04T11:46:26.995Z,79.38
2023-12-04T11:48:59.392Z,79.45
2023-12-04T11:51:47.870Z,79.19
2023-12-04T11:54:16.657Z,79.13
2023-12-04T11:57:02.916Z,79.21
2023-12-04T11:59:29.962Z,79.24
2023-12-04T12:02:01.181Z,79.03
2023-12-04T12:04:30.823Z,79.03
2023-12-04T12:06:59.403Z,78.76
2023-12-04T12:09:27.470Z,78.95
2023-12-04T12:11:54.551Z,78.81
2023-12-04T12:14:23.156Z,78.44
2023-12-04T12:16:50.216Z,78.84
2023-12-04T12:19:18.781Z,79.18
2023-12-04T12:21:46.709Z,79.69
2023-12-04T12:24:13.803Z,79.94
2023-12-04T12:26:40.888Z,79.87
2023-12-04T12:29:10.669Z,79.73
2023-12-04T12:31:37.841Z,79.26
2023-12-04T12:34:05.199Z,79.09
2023-12-04T12:36:34.472Z,79.03
2023-12-04T12:39:05.533Z,78.67
2023-12-04T12:41:32.704Z,78.69
2023-12-04T12:44:01.437Z,78.62
2023-12-04T12:46:31.613Z,78.44
2023-12-04T12:48:59.938Z,78.32
2023-12-04T12:51:30.015Z,78.54
2023-12-04T12:53:58.631Z,78.48
2023-12-04T12:56:26.709Z,78.34
2023-12-04T12:58:57.146Z,78.18
2023-12-04T13:01:26.824Z,78.25
2023-12-04T13:03:54.037Z,78.40
2023-12-04T13:06:21.132Z,78.52
2023-12-04T13:08:49.294Z,78.23
2023-12-04T13:11:16.607Z,78.34
2023-12-04T13:13:44.178Z,78.57
2023-12-04T13:16:12.580Z,78.46
2023-12-04T13:18:40.260Z,78.48
2023-12-04T13:21:07.417Z,78.37
2023-12-04T13:23:34.318Z,78.41
2023-12-04T13:26:01.158Z,78.63
2023-12-04T13:28:36.269Z,78.64
2023-12-04T13:31:08.536Z,78.48
2023-12-04T13:33:35.499Z,78.73
2023-12-04T13:36:02.687Z,78.81
2023-12-04T13:38:35.077Z,78.69
2023-12-04T13:41:31.282Z,78.62
2023-12-04T13:44:01.230Z,78.90
2023-12-04T13:46:28.671Z,78.85
2023-12-04T13:48:55.650Z,78.89
2023-12-04T13:51:23.977Z,78.98
2023-12-04T13:53:57.575Z,79.08
2023-12-04T13:56:45.871Z,79.31
2023-12-04T13:59:21.521Z,79.04
2023-12-04T14:01:51.384Z,79.48
2023-12-04T14:04:19.634Z,79.37
2023-12-04T14:06:47.661Z,79.50
2023-12-04T14:09:18.078Z,79.60
2023-12-04T14:11:46.114Z,79.66
2023-12-04T14:14:14.633Z,79.75
2023-12-04T14:16:43.748Z,79.73
2023-12-04T14:19:11.065Z,79.81
2023-12-04T14:21:38.147Z,79.95
2023-12-04T14:24:05.408Z,79.99
2023-12-04T14:26:33.558Z,79.73
2023-12-04T14:29:02.661Z,79.80
2023-12-04T14:31:29.999Z,79.97
2023-12-04T14:34:00.592Z,79.99
2023-12-04T14:36:33.482Z,80.25
2023-12-04T14:39:02.008Z,80.03
2023-12-04T14:41:29.481Z,80.18
2023-12-04T14:43:56.516Z,80.09
2023-12-04T14:46:24.590Z,80.35
2023-12-04T14:48:51.722Z,80.18
2023-12-04T14:51:18.869Z,80.35
2023-12-04T14:53:52.531Z,80.10
2023-12-04T14:56:37.741Z,80.26
2023-12-04T14:59:07.679Z,80.12
2023-12-04T15:02:10.062Z,80.19
2023-12-04T15:04:56.679Z,80.09
2023-12-04T15:07:57.180Z,80.00
2023-12-04T15:10:34.138Z,80.27
2023-12-04T15:13:07.200Z,80.44
2023-12-04T15:15:40.138Z,80.44
2023-12-04T15:18:26.408Z,81.53
2023-12-04T15:20:53.835Z,82.36
2023-12-04T15:23:21.594Z,82.60
2023-12-04T15:25:51.059Z,82.27
2023-12-04T15:28:18.044Z,82.37
2023-12-04T15:30:46.352Z,82.43
2023-12-04T15:33:13.922Z,82.16
2023-12-04T15:35:41.283Z,82.01
2023-12-04T15:38:08.597Z,82.09
2023-12-04T15:40:35.924Z,81.99
2023-12-04T15:43:05.965Z,81.71
2023-12-04T15:45:33.002Z,82.03
2023-12-04T15:48:00.035Z,81.95
2023-12-04T15:50:27.328Z,81.87
2023-12-04T15:52:54.314Z,81.73
2023-12-04T15:55:22.136Z,81.76
2023-12-04T15:57:56.201Z,81.78
2023-12-04T16:00:24.737Z,81.82
2023-12-04T16:02:52.435Z,81.91
2023-12-04T16:05:19.586Z,81.87
2023-12-04T16:07:47.746Z,81.96
2023-12-04T16:10:17.111Z,81.72
2023-12-04T16:12:48.152Z,81.69
2023-12-04T16:15:18.773Z,81.66
2023-12-04T16:17:49.592Z,81.61
2023-12-04T16:20:19.772Z,81.67
2023-12-04T16:22:49.467Z,81.65
2023-12-04T16:25:19.587Z,81.75
2023-12-04T16:27:52.945Z,81.80
2023-12-04T16:30:20.852Z,81.55
2023-12-04T16:32:47.881Z,81.77
2023-12-04T16:35:14.816Z,81.54
2023-12-04T16:37:42.809Z,81.60
2023-12-04T16:40:10.485Z,81.68
2023-12-04T16:42:38.103Z,81.97
2023-12-04T16:45:05.698Z,81.80
2023-12-04T16:47:33.854Z,81.68
2023-12-04T16:50:00.956Z,81.54
2023-12-04T16:52:28.878Z,81.78
2023-12-04T16:54:56.378Z,81.70
2023-12-04T16:57:23.407Z,81.57
2023-12-04T16:59:51.827Z,81.53
2023-12-04T17:02:20.232Z,81.66
2023-12-04T17:04:47.208Z,81.63
2023-12-04T17:07:14.875Z,81.79
2023-12-04T17:09:42.107Z,81.80
2023-12-04T17:12:09.571Z,81.94
2023-12-04T17:14:36.657Z,81.93
2023-12-04T17:17:03.960Z,81.94
2023-12-04T17:19:33.023Z,81.89
2023-12-04T17:22:00.696Z,81.78
2023-12-04T17:24:27.803Z,81.71
2023-12-04T17:26:57.812Z,81.85
2023-12-04T17:29:25.188Z,81.62
2023-12-04T17:31:53.657Z,81.90
2023-12-04T17:34:20.840Z,81.92
2023-12-04T17:36:48.806Z,81.89
2023-12-04T17:39:18.690Z,81.72
2023-12-04T17:41:46.633Z,81.69
2023-12-04T17:44:13.848Z,81.72
2023-12-04T17:46:41.021Z,81.84
2023-12-04T17:49:09.273Z,81.74
2023-12-04T17:51:38.093Z,81.67
2023-12-04T17:54:05.416Z,81.83
2023-12-04T17:56:35.109Z,81.85
2023-12-04T17:59:03.260Z,82.00
2023-12-04T18:01:32.130Z,82.11
2023-12-04T18:03:59.418Z,81.85
2023-12-04T18:06:28.088Z,81.88
2023-12-04T18:08:56.083Z,81.93
2023-12-04T18:11:23.405Z,82.01
2023-12-04T18:13:50.800Z,81.88
2023-12-04T18:16:18.626Z,81.80
2023-12-04T18:18:45.818Z,81.88
2023-12-04T18:21:13.472Z,81.71
2023-12-04T18:23:40.696Z,81.92
2023-12-04T18:26:09.464Z,81.69
2023-12-04T18:28:40.882Z,81.65
2023-12-04T18:31:08.940Z,81.67
2023-12-04T18:33:37.449Z,81.75
2023-12-04T18:36:06.544Z,81.64
2023-12-04T18:38:54.011Z,81.83
2023-12-04T18:41:22.141Z,81.60
2023-12-04T18:43:50.017Z,81.67
2023-12-04T18:46:17.105Z,81.38
2023-12-04T18:48:46.784Z,81.45
2023-12-04T18:51:16.384Z,81.36
2023-12-04T18:53:45.102Z,81.32
2023-12-04T18:56:12.546Z,81.17
2023-12-04T18:58:39.607Z,81.34
2023-12-04T19:01:06.727Z,81.29
2023-12-04T19:03:34.051Z,81.47
2023-12-04T19:06:01.240Z,81.43
2023-12-04T19:08:29.361Z,81.49
2023-12-04T19:10:56.429Z,81.48
2023-12-04T19:13:32.242Z,81.29
2023-12-04T19:16:09.198Z,81.43
2023-12-04T19:18:39.628Z,81.49
2023-12-04T19:21:07.317Z,81.34
2023-12-04T19:23:34.628Z,81.36
2023-12-04T19:26:08.028Z,81.67
2023-12-04T19:28:35.781Z,81.78
2023-12-04T19:31:05.296Z,81.88
2023-12-04T19:33:32.710Z,81.82
2023-12-04T19:36:05.485Z,81.95
2023-12-04T19:38:32.593Z,81.80
2023-12-04T19:40:59.604Z,81.77
2023-12-04T19:43:26.871Z,81.73
2023-12-04T19:45:54.197Z,81.93
2023-12-04T19:48:24.531Z,82.01
2023-12-04T19:50:53.161Z,81.98
2023-12-04T19:53:20.813Z,82.30
2023-12-04T19:55:47.942Z,82.20
2023-12-04T19:58:15.019Z,82.32
2023-12-04T20:00:42.814Z,82.19
2023-12-04T20:03:13.118Z,82.12
2023-12-04T20:05:40.689Z,82.10
2023-12-04T20:08:08.511Z,82.19
2023-12-04T20:10:39.603Z,82.21
2023-12-04T20:13:07.818Z,82.23
2023-12-04T20:15:37.724Z,82.15
2023-12-04T20:18:05.583Z,81.93
2023-12-04T20:20:37.102Z,81.79
2023-12-04T20:23:04.311Z,82.02
2023-12-04T20:25:31.342Z,82.04
2023-12-04T20:28:00.519Z,82.12
2023-12-04T20:30:33.158Z,82.11
2023-12-04T20:33:01.027Z,81.83
2023-12-04T20:35:29.683Z,81.99
2023-12-04T20:37:57.378Z,81.79
2023-12-04T20:40:24.339Z,81.73
2023-12-04T20:42:51.473Z,81.60
2023-12-04T20:45:18.635Z,81.51
2023-12-04T20:47:45.748Z,81.69
2023-12-04T20:50:12.984Z,81.73
2023-12-04T20:52:40.020Z,81.40
2023-12-04T20:55:07.578Z,81.41
2023-12-04T20:57:34.884Z,81.44
2023-12-04T21:00:01.994Z,81.55
2023-12-04T21:02:29.526Z,81.48
2023-12-04T21:04:56.696Z,81.35
2023-12-04T21:07:25.041Z,81.50
2023-12-04T21:09:54.312Z,80.98
2023-12-04T21:12:22.170Z,81.11
2023-12-04T21:14:49.696Z,80.95
2023-12-04T21:17:17.329Z,80.84
2023-12-04T21:19:44.537Z,81.00
2023-12-04T21:22:11.573Z,80.97
2023-12-04T21:24:38.772Z,80.99
2023-12-04T21:27:05.924Z,81.03
2023-12-04T21:29:32.980Z,80.87
2023-12-04T21:32:00.197Z,80.89
2023-12-04T21:34:27.636Z,81.10
2023-12-04T21:36:54.732Z,80.83
2023-12-04T21:39:21.880Z,80.67
2023-12-04T21:41:49.180Z,80.82
2023-12-04T21:44:16.632Z,80.83
2023-12-04T21:46:43.661Z,80.61
2023-12-04T21:49:10.909Z,80.54
2023-12-04T21:51:40.038Z,80.67
2023-12-04T21:54:07.085Z,80.96
2023-12-04T21:56:34.321Z,80.85
2023-12-04T21:59:01.406Z,80.72
2023-12-04T22:01:29.078Z,80.69
2023-12-04T22:03:57.184Z,80.57
2023-12-04T22:06:24.361Z,80.69
2023-12-04T22:08:51.380Z,80.67
2023-12-04T22:11:18.266Z,80.83
2023-12-04T22:13:45.200Z,80.78
2023-12-04T22:16:12.162Z,80.51
2023-12-04T22:18:39.127Z,80.87
2023-12-04T22:21:06.666Z,80.44
2023-12-04T22:23:33.881Z,80.77
2023-12-04T22:26:02.460Z,80.75
2023-12-04T22:28:30.388Z,80.74
2023-12-04T22:30:57.371Z,80.62
2023-12-04T22:33:24.452Z,80.75
2023-12-04T22:35:51.351Z,80.79
2023-12-04T22:38:18.639Z,80.75
2023-12-04T22:40:45.564Z,80.55
2023-12-04T22:43:13.244Z,80.80
2023-12-04T22:45:40.379Z,80.66
2023-12-04T22:48:07.519Z,80.63
2023-12-04T22:50:34.525Z,80.61
2023-12-04T22:53:05.919Z,80.55
2023-12-04T22:55:36.519Z,80.38
2023-12-04T22:58:04.217Z,80.36
2023-12-04T23:00:31.304Z,80.51
2023-12-04T23:02:58.257Z,80.44
2023-12-04T23:05:26.035Z,80.42
2023-12-04T23:07:53.093Z,80.43
2023-12-04T23:10:20.029Z,80.64
2023-12-04T23:12:48.825Z,80.44
2023-12-04T23:15:15.904Z,80.57
2023-12-04T23:17:43.002Z,80.58
2023-12-04T23:20:10.817Z,80.54
2023-12-04T23:22:37.649Z,80.67
2023-12-04T23:25:04.868Z,80.40
2023-12-04T23:27:37.315Z,80.42
2023-12-04T23:30:08.202Z,80.60
2023-12-04T23:32:35.513Z,80.46
2023-12-04T23:35:02.739Z,80.56
2023-12-04T23:37:29.867Z,80.70
2023-12-04T23:39:56.860Z,80.74
2023-12-04T23:42:24.007Z,80.44
2023-12-04T23:44:50.987Z,80.37
2023-12-04T23:47:17.944Z,80.60
2023-12-04T23:49:45.387Z,80.59
2023-12-04T23:52:12.433Z,80.54
2023-12-04T23:54:39.773Z,80.22
2023-12-04T23:57:06.679Z,80.27
2023-12-04T23:59:33.782Z,80.24
